sensor_id;sensor_type;location;lat;lon;timestamp;P1;durP1;ratioP1;P2;durP2;ratioP2
41653;SDS011;30790;52.030;7.110;2022-12-11T00:00:35;18.65;;;10.00;;
41653;SDS011;30790;52.030;7.110;2022-12-11T00:03:02;18.95;;;10.25;;
41653;SDS011;30790;52.030;7.110;2022-12-11T00:05:27;18.35;;;10.23;;
41653;SDS011;30790;52.030;7.110;2022-12-11T00:07:52;19.58;;;9.95;;
41653;SDS011;30790;52.030;7.110;2022-12-11T00:10:17;15.73;;;9.13;;
41653;SDS011;30790;52.030;7.110;2022-12-11T00:12:43;17.02;;;9.57;;
41653;SDS011;30790;52.030;7.110;2022-12-11T00:15:08;15.32;;;9.48;;
41653;SDS011;30790;52.030;7.110;2022-12-11T00:17:34;21.10;;;9.95;;
41653;SDS011;30790;52.030;7.110;2022-12-11T00:19:59;12.57;;;8.35;;
41653;SDS011;30790;52.030;7.110;2022-12-11T00:22:24;19.27;;;10.57;;
41653;SDS011;30790;52.030;7.110;2022-12-11T00:24:50;18.17;;;9.40;;
41653;SDS011;30790;52.030;7.110;2022-12-11T00:27:15;15.77;;;10.10;;
41653;SDS011;30790;52.030;7.110;2022-12-11T00:29:40;19.47;;;10.07;;
41653;SDS011;30790;52.030;7.110;2022-12-11T00:32:06;17.13;;;10.52;;
41653;SDS011;30790;52.030;7.110;2022-12-11T00:34:31;16.17;;;9.03;;
41653;SDS011;30790;52.030;7.110;2022-12-11T00:36:56;18.75;;;9.95;;
41653;SDS011;30790;52.030;7.110;2022-12-11T00:39:22;15.65;;;9.13;;
41653;SDS011;30790;52.030;7.110;2022-12-11T00:41:48;17.35;;;9.57;;
41653;SDS011;30790;52.030;7.110;2022-12-11T00:44:13;13.85;;;8.55;;
41653;SDS011;30790;52.030;7.110;2022-12-11T00:46:38;15.55;;;9.38;;
41653;SDS011;30790;52.030;7.110;2022-12-11T00:49:04;14.85;;;8.32;;
41653;SDS011;30790;52.030;7.110;2022-12-11T00:51:29;15.32;;;8.27;;
41653;SDS011;30790;52.030;7.110;2022-12-11T00:53:54;16.38;;;9.35;;
41653;SDS011;30790;52.030;7.110;2022-12-11T00:56:20;13.98;;;8.60;;
41653;SDS011;30790;52.030;7.110;2022-12-11T00:58:46;16.42;;;9.35;;
41653;SDS011;30790;52.030;7.110;2022-12-11T01:01:14;15.23;;;8.63;;
41653;SDS011;30790;52.030;7.110;2022-12-11T01:03:45;18.25;;;9.18;;
41653;SDS011;30790;52.030;7.110;2022-12-11T01:06:14;15.90;;;9.45;;
41653;SDS011;30790;52.030;7.110;2022-12-11T01:08:41;13.25;;;7.95;;
41653;SDS011;30790;52.030;7.110;2022-12-11T01:11:08;13.35;;;8.30;;
41653;SDS011;30790;52.030;7.110;2022-12-11T01:13:35;13.10;;;8.15;;
41653;SDS011;30790;52.030;7.110;2022-12-11T01:16:06;12.10;;;8.15;;
41653;SDS011;30790;52.030;7.110;2022-12-11T01:18:33;13.98;;;8.85;;
41653;SDS011;30790;52.030;7.110;2022-12-11T01:20:58;14.55;;;8.82;;
41653;SDS011;30790;52.030;7.110;2022-12-11T01:23:23;15.55;;;8.52;;
41653;SDS011;30790;52.030;7.110;2022-12-11T01:25:49;11.73;;;8.00;;
41653;SDS011;30790;52.030;7.110;2022-12-11T01:28:14;16.67;;;9.30;;
41653;SDS011;30790;52.030;7.110;2022-12-11T01:30:40;14.02;;;8.88;;
41653;SDS011;30790;52.030;7.110;2022-12-11T01:33:07;14.57;;;8.45;;
41653;SDS011;30790;52.030;7.110;2022-12-11T01:35:32;16.63;;;9.15;;
41653;SDS011;30790;52.030;7.110;2022-12-11T01:37:57;15.18;;;8.55;;
41653;SDS011;30790;52.030;7.110;2022-12-11T01:40:23;13.13;;;8.10;;
41653;SDS011;30790;52.030;7.110;2022-12-11T01:42:49;14.25;;;8.40;;
41653;SDS011;30790;52.030;7.110;2022-12-11T01:45:22;16.10;;;8.43;;
41653;SDS011;30790;52.030;7.110;2022-12-11T01:48:15;13.73;;;8.52;;
41653;SDS011;30790;52.030;7.110;2022-12-11T01:50:48;15.68;;;8.48;;
41653;SDS011;30790;52.030;7.110;2022-12-11T01:53:17;12.93;;;8.45;;
41653;SDS011;30790;52.030;7.110;2022-12-11T01:55:47;12.48;;;7.70;;
41653;SDS011;30790;52.030;7.110;2022-12-11T01:58:15;14.73;;;8.77;;
41653;SDS011;30790;52.030;7.110;2022-12-11T02:00:42;12.50;;;7.43;;
41653;SDS011;30790;52.030;7.110;2022-12-11T02:03:08;13.23;;;8.40;;
41653;SDS011;30790;52.030;7.110;2022-12-11T02:05:33;14.57;;;7.93;;
41653;SDS011;30790;52.030;7.110;2022-12-11T02:07:59;13.30;;;7.93;;
41653;SDS011;30790;52.030;7.110;2022-12-11T02:10:40;13.50;;;8.27;;
41653;SDS011;30790;52.030;7.110;2022-12-11T02:21:19;10.70;;;7.18;;
41653;SDS011;30790;52.030;7.110;2022-12-11T02:26:36;10.05;;;6.72;;
41653;SDS011;30790;52.030;7.110;2022-12-11T02:29:19;11.68;;;6.70;;
41653;SDS011;30790;52.030;7.110;2022-12-11T02:31:58;11.95;;;6.68;;
41653;SDS011;30790;52.030;7.110;2022-12-11T02:34:32;11.73;;;7.60;;
41653;SDS011;30790;52.030;7.110;2022-12-11T02:37:05;12.17;;;7.37;;
41653;SDS011;30790;52.030;7.110;2022-12-11T02:39:37;13.43;;;7.30;;
41653;SDS011;30790;52.030;7.110;2022-12-11T02:42:05;12.20;;;7.78;;
41653;SDS011;30790;52.030;7.110;2022-12-11T02:44:33;12.40;;;6.97;;
41653;SDS011;30790;52.030;7.110;2022-12-11T02:46:59;12.27;;;7.57;;
41653;SDS011;30790;52.030;7.110;2022-12-11T02:49:28;10.75;;;7.10;;
41653;SDS011;30790;52.030;7.110;2022-12-11T02:51:56;12.95;;;7.60;;
41653;SDS011;30790;52.030;7.110;2022-12-11T02:54:26;11.05;;;7.07;;
41653;SDS011;30790;52.030;7.110;2022-12-11T02:57:08;12.10;;;7.82;;
41653;SDS011;30790;52.030;7.110;2022-12-11T02:59:39;11.50;;;7.03;;
41653;SDS011;30790;52.030;7.110;2022-12-11T03:02:07;11.43;;;7.32;;
41653;SDS011;30790;52.030;7.110;2022-12-11T03:04:33;11.32;;;7.80;;
41653;SDS011;30790;52.030;7.110;2022-12-11T03:07:07;9.50;;;6.55;;
41653;SDS011;30790;52.030;7.110;2022-12-11T03:09:36;13.15;;;6.82;;
41653;SDS011;30790;52.030;7.110;2022-12-11T03:12:03;10.93;;;6.88;;
41653;SDS011;30790;52.030;7.110;2022-12-11T03:14:30;12.65;;;7.13;;
41653;SDS011;30790;52.030;7.110;2022-12-11T03:16:58;11.23;;;8.00;;
41653;SDS011;30790;52.030;7.110;2022-12-11T03:19:44;11.77;;;6.88;;
41653;SDS011;30790;52.030;7.110;2022-12-11T03:22:25;11.52;;;7.85;;
41653;SDS011;30790;52.030;7.110;2022-12-11T03:25:03;13.52;;;6.80;;
41653;SDS011;30790;52.030;7.110;2022-12-11T03:27:38;10.27;;;6.63;;
41653;SDS011;30790;52.030;7.110;2022-12-11T03:30:10;13.00;;;7.07;;
41653;SDS011;30790;52.030;7.110;2022-12-11T03:32:47;11.38;;;7.35;;
41653;SDS011;30790;52.030;7.110;2022-12-11T03:35:21;11.30;;;7.45;;
41653;SDS011;30790;52.030;7.110;2022-12-11T03:37:50;10.45;;;6.68;;
41653;SDS011;30790;52.030;7.110;2022-12-11T03:40:19;9.63;;;6.47;;
41653;SDS011;30790;52.030;7.110;2022-12-11T03:42:47;9.10;;;6.70;;
41653;SDS011;30790;52.030;7.110;2022-12-11T03:45:15;9.90;;;6.57;;
41653;SDS011;30790;52.030;7.110;2022-12-11T03:47:43;9.13;;;5.65;;
41653;SDS011;30790;52.030;7.110;2022-12-11T03:50:10;11.00;;;6.93;;
41653;SDS011;30790;52.030;7.110;2022-12-11T03:52:39;12.25;;;7.40;;
41653;SDS011;30790;52.030;7.110;2022-12-11T03:55:06;9.88;;;6.45;;
41653;SDS011;30790;52.030;7.110;2022-12-11T03:57:34;9.32;;;6.13;;
41653;SDS011;30790;52.030;7.110;2022-12-11T04:00:03;13.88;;;7.32;;
41653;SDS011;30790;52.030;7.110;2022-12-11T04:02:30;10.32;;;6.63;;
41653;SDS011;30790;52.030;7.110;2022-12-11T04:04:55;9.48;;;6.50;;
41653;SDS011;30790;52.030;7.110;2022-12-11T04:07:21;9.77;;;6.75;;
41653;SDS011;30790;52.030;7.110;2022-12-11T04:09:46;9.88;;;6.13;;
41653;SDS011;30790;52.030;7.110;2022-12-11T04:12:12;9.95;;;6.70;;
41653;SDS011;30790;52.030;7.110;2022-12-11T04:14:37;10.75;;;6.68;;
41653;SDS011;30790;52.030;7.110;2022-12-11T04:17:21;9.52;;;6.05;;
41653;SDS011;30790;52.030;7.110;2022-12-11T04:20:05;11.02;;;7.18;;
41653;SDS011;30790;52.030;7.110;2022-12-11T04:22:49;11.30;;;7.50;;
41653;SDS011;30790;52.030;7.110;2022-12-11T04:25:33;9.40;;;6.20;;
41653;SDS011;30790;52.030;7.110;2022-12-11T04:27:58;10.13;;;5.90;;
41653;SDS011;30790;52.030;7.110;2022-12-11T04:30:24;9.38;;;5.95;;
41653;SDS011;30790;52.030;7.110;2022-12-11T04:32:50;12.63;;;7.03;;
41653;SDS011;30790;52.030;7.110;2022-12-11T04:35:17;10.18;;;6.80;;
41653;SDS011;30790;52.030;7.110;2022-12-11T04:37:43;10.00;;;6.00;;
41653;SDS011;30790;52.030;7.110;2022-12-11T04:40:09;10.52;;;7.07;;
41653;SDS011;30790;52.030;7.110;2022-12-11T04:42:37;10.27;;;6.10;;
41653;SDS011;30790;52.030;7.110;2022-12-11T04:45:02;10.70;;;6.03;;
41653;SDS011;30790;52.030;7.110;2022-12-11T04:47:28;11.35;;;6.10;;
41653;SDS011;30790;52.030;7.110;2022-12-11T04:49:53;8.50;;;6.05;;
41653;SDS011;30790;52.030;7.110;2022-12-11T04:52:19;9.63;;;5.75;;
41653;SDS011;30790;52.030;7.110;2022-12-11T04:54:44;8.35;;;5.78;;
41653;SDS011;30790;52.030;7.110;2022-12-11T04:57:10;10.02;;;6.50;;
41653;SDS011;30790;52.030;7.110;2022-12-11T04:59:35;9.13;;;5.80;;
41653;SDS011;30790;52.030;7.110;2022-12-11T05:02:01;9.23;;;5.82;;
41653;SDS011;30790;52.030;7.110;2022-12-11T05:04:30;8.50;;;5.75;;
41653;SDS011;30790;52.030;7.110;2022-12-11T05:06:56;8.15;;;5.25;;
41653;SDS011;30790;52.030;7.110;2022-12-11T05:09:22;9.95;;;6.28;;
41653;SDS011;30790;52.030;7.110;2022-12-11T05:11:48;9.23;;;5.95;;
41653;SDS011;30790;52.030;7.110;2022-12-11T05:14:13;9.23;;;5.28;;
41653;SDS011;30790;52.030;7.110;2022-12-11T05:16:38;8.45;;;5.38;;
41653;SDS011;30790;52.030;7.110;2022-12-11T05:19:03;8.88;;;5.80;;
41653;SDS011;30790;52.030;7.110;2022-12-11T05:21:29;9.07;;;5.85;;
41653;SDS011;30790;52.030;7.110;2022-12-11T05:23:54;10.05;;;5.78;;
41653;SDS011;30790;52.030;7.110;2022-12-11T05:26:19;7.65;;;5.22;;
41653;SDS011;30790;52.030;7.110;2022-12-11T05:28:45;6.82;;;4.88;;
41653;SDS011;30790;52.030;7.110;2022-12-11T05:31:15;7.95;;;5.68;;
41653;SDS011;30790;52.030;7.110;2022-12-11T05:33:42;6.25;;;4.53;;
41653;SDS011;30790;52.030;7.110;2022-12-11T05:36:08;8.57;;;5.47;;
41653;SDS011;30790;52.030;7.110;2022-12-11T05:38:40;10.10;;;6.00;;
41653;SDS011;30790;52.030;7.110;2022-12-11T05:41:05;7.55;;;5.00;;
41653;SDS011;30790;52.030;7.110;2022-12-11T05:43:32;8.63;;;5.65;;
41653;SDS011;30790;52.030;7.110;2022-12-11T05:46:10;8.65;;;5.50;;
41653;SDS011;30790;52.030;7.110;2022-12-11T05:48:41;9.02;;;5.53;;
41653;SDS011;30790;52.030;7.110;2022-12-11T05:51:09;7.38;;;4.78;;
41653;SDS011;30790;52.030;7.110;2022-12-11T05:53:35;8.68;;;5.00;;
41653;SDS011;30790;52.030;7.110;2022-12-11T05:56:02;7.10;;;4.93;;
41653;SDS011;30790;52.030;7.110;2022-12-11T05:58:29;8.15;;;5.53;;
41653;SDS011;30790;52.030;7.110;2022-12-11T06:00:55;10.45;;;5.95;;
41653;SDS011;30790;52.030;7.110;2022-12-11T06:03:20;6.68;;;5.10;;
41653;SDS011;30790;52.030;7.110;2022-12-11T06:05:45;6.75;;;4.65;;
41653;SDS011;30790;52.030;7.110;2022-12-11T06:08:11;7.18;;;4.95;;
41653;SDS011;30790;52.030;7.110;2022-12-11T06:10:36;7.45;;;5.07;;
41653;SDS011;30790;52.030;7.110;2022-12-11T06:13:01;10.68;;;5.35;;
41653;SDS011;30790;52.030;7.110;2022-12-11T06:15:26;8.05;;;5.28;;
41653;SDS011;30790;52.030;7.110;2022-12-11T06:17:52;9.18;;;5.38;;
41653;SDS011;30790;52.030;7.110;2022-12-11T06:20:17;7.50;;;4.68;;
41653;SDS011;30790;52.030;7.110;2022-12-11T06:22:42;6.47;;;4.80;;
41653;SDS011;30790;52.030;7.110;2022-12-11T06:28:23;5.80;;;4.47;;
41653;SDS011;30790;52.030;7.110;2022-12-11T06:30:48;8.20;;;5.00;;
41653;SDS011;30790;52.030;7.110;2022-12-11T06:33:13;6.68;;;4.82;;
41653;SDS011;30790;52.030;7.110;2022-12-11T06:35:39;6.65;;;4.82;;
41653;SDS011;30790;52.030;7.110;2022-12-11T06:38:04;7.73;;;5.30;;
41653;SDS011;30790;52.030;7.110;2022-12-11T06:40:29;6.30;;;4.53;;
41653;SDS011;30790;52.030;7.110;2022-12-11T06:42:54;7.63;;;4.65;;
41653;SDS011;30790;52.030;7.110;2022-12-11T06:45:20;6.70;;;4.70;;
41653;SDS011;30790;52.030;7.110;2022-12-11T06:47:45;6.60;;;4.35;;
41653;SDS011;30790;52.030;7.110;2022-12-11T06:50:10;6.78;;;4.72;;
41653;SDS011;30790;52.030;7.110;2022-12-11T06:52:36;9.13;;;5.10;;
41653;SDS011;30790;52.030;7.110;2022-12-11T06:55:01;5.63;;;4.00;;
41653;SDS011;30790;52.030;7.110;2022-12-11T06:57:27;7.50;;;4.78;;
41653;SDS011;30790;52.030;7.110;2022-12-11T06:59:52;8.90;;;5.30;;
41653;SDS011;30790;52.030;7.110;2022-12-11T07:02:18;6.80;;;4.78;;
41653;SDS011;30790;52.030;7.110;2022-12-11T07:04:44;9.82;;;4.65;;
41653;SDS011;30790;52.030;7.110;2022-12-11T07:07:09;6.97;;;4.32;;
41653;SDS011;30790;52.030;7.110;2022-12-11T07:09:36;6.03;;;4.50;;
41653;SDS011;30790;52.030;7.110;2022-12-11T07:12:03;7.60;;;4.63;;
41653;SDS011;30790;52.030;7.110;2022-12-11T07:14:29;8.55;;;4.75;;
41653;SDS011;30790;52.030;7.110;2022-12-11T07:16:55;6.95;;;4.32;;
41653;SDS011;30790;52.030;7.110;2022-12-11T07:19:21;6.75;;;4.30;;
41653;SDS011;30790;52.030;7.110;2022-12-11T07:21:46;6.55;;;4.72;;
41653;SDS011;30790;52.030;7.110;2022-12-11T07:24:12;5.07;;;4.18;;
41653;SDS011;30790;52.030;7.110;2022-12-11T07:26:37;6.00;;;4.32;;
41653;SDS011;30790;52.030;7.110;2022-12-11T07:29:02;7.00;;;4.40;;
41653;SDS011;30790;52.030;7.110;2022-12-11T07:31:28;6.03;;;3.60;;
41653;SDS011;30790;52.030;7.110;2022-12-11T07:33:58;6.57;;;4.30;;
41653;SDS011;30790;52.030;7.110;2022-12-11T07:36:25;7.72;;;4.32;;
41653;SDS011;30790;52.030;7.110;2022-12-11T07:38:52;7.78;;;4.20;;
41653;SDS011;30790;52.030;7.110;2022-12-11T07:41:18;6.15;;;3.80;;
41653;SDS011;30790;52.030;7.110;2022-12-11T07:43:43;6.80;;;4.57;;
41653;SDS011;30790;52.030;7.110;2022-12-11T07:46:10;6.35;;;3.80;;
41653;SDS011;30790;52.030;7.110;2022-12-11T07:48:38;6.45;;;4.63;;
41653;SDS011;30790;52.030;7.110;2022-12-11T07:53:34;8.07;;;4.40;;
41653;SDS011;30790;52.030;7.110;2022-12-11T07:55:59;7.78;;;3.92;;
41653;SDS011;30790;52.030;7.110;2022-12-11T07:58:24;6.65;;;3.88;;
41653;SDS011;30790;52.030;7.110;2022-12-11T08:00:50;7.25;;;4.15;;
41653;SDS011;30790;52.030;7.110;2022-12-11T08:03:15;6.22;;;4.35;;
41653;SDS011;30790;52.030;7.110;2022-12-11T08:05:45;6.60;;;4.15;;
41653;SDS011;30790;52.030;7.110;2022-12-11T08:08:13;5.60;;;3.65;;
41653;SDS011;30790;52.030;7.110;2022-12-11T08:10:38;5.88;;;3.83;;
41653;SDS011;30790;52.030;7.110;2022-12-11T08:13:03;6.53;;;4.27;;
41653;SDS011;30790;52.030;7.110;2022-12-11T08:15:29;6.88;;;4.43;;
41653;SDS011;30790;52.030;7.110;2022-12-11T08:17:54;5.35;;;3.53;;
41653;SDS011;30790;52.030;7.110;2022-12-11T08:20:19;7.35;;;4.18;;
41653;SDS011;30790;52.030;7.110;2022-12-11T08:22:44;17.45;;;4.38;;
41653;SDS011;30790;52.030;7.110;2022-12-11T08:25:10;7.43;;;4.23;;
41653;SDS011;30790;52.030;7.110;2022-12-11T08:27:35;7.95;;;4.45;;
41653;SDS011;30790;52.030;7.110;2022-12-11T08:30:00;7.37;;;4.20;;
41653;SDS011;30790;52.030;7.110;2022-12-11T08:32:25;5.82;;;4.20;;
41653;SDS011;30790;52.030;7.110;2022-12-11T08:34:51;8.77;;;4.57;;
41653;SDS011;30790;52.030;7.110;2022-12-11T08:37:16;6.57;;;3.88;;
41653;SDS011;30790;52.030;7.110;2022-12-11T08:39:41;8.60;;;4.20;;
41653;SDS011;30790;52.030;7.110;2022-12-11T08:42:07;5.95;;;3.95;;
41653;SDS011;30790;52.030;7.110;2022-12-11T08:44:33;6.72;;;3.25;;
41653;SDS011;30790;52.030;7.110;2022-12-11T08:46:58;7.65;;;4.07;;
41653;SDS011;30790;52.030;7.110;2022-12-11T08:49:23;7.63;;;3.95;;
41653;SDS011;30790;52.030;7.110;2022-12-11T08:51:49;6.05;;;3.58;;
41653;SDS011;30790;52.030;7.110;2022-12-11T08:54:14;6.47;;;4.03;;
41653;SDS011;30790;52.030;7.110;2022-12-11T08:56:39;9.73;;;3.72;;
41653;SDS011;30790;52.030;7.110;2022-12-11T08:59:04;5.80;;;3.65;;
41653;SDS011;30790;52.030;7.110;2022-12-11T09:01:30;6.10;;;3.55;;
41653;SDS011;30790;52.030;7.110;2022-12-11T09:03:55;5.32;;;3.63;;
41653;SDS011;30790;52.030;7.110;2022-12-11T09:06:22;7.78;;;4.18;;
41653;SDS011;30790;52.030;7.110;2022-12-11T09:08:50;7.00;;;3.80;;
41653;SDS011;30790;52.030;7.110;2022-12-11T09:11:18;5.03;;;3.95;;
41653;SDS011;30790;52.030;7.110;2022-12-11T09:13:45;8.35;;;3.85;;
41653;SDS011;30790;52.030;7.110;2022-12-11T09:16:14;6.95;;;3.90;;
41653;SDS011;30790;52.030;7.110;2022-12-11T09:18:41;6.20;;;3.47;;
41653;SDS011;30790;52.030;7.110;2022-12-11T09:21:11;7.32;;;3.78;;
41653;SDS011;30790;52.030;7.110;2022-12-11T09:23:38;5.30;;;3.53;;
41653;SDS011;30790;52.030;7.110;2022-12-11T09:26:04;5.03;;;3.50;;
41653;SDS011;30790;52.030;7.110;2022-12-11T09:28:31;5.75;;;3.83;;
41653;SDS011;30790;52.030;7.110;2022-12-11T09:30:57;7.65;;;3.90;;
41653;SDS011;30790;52.030;7.110;2022-12-11T09:33:22;6.15;;;4.05;;
41653;SDS011;30790;52.030;7.110;2022-12-11T09:35:58;9.75;;;3.83;;
41653;SDS011;30790;52.030;7.110;2022-12-11T09:38:24;5.18;;;3.60;;
41653;SDS011;30790;52.030;7.110;2022-12-11T09:40:50;4.63;;;3.45;;
41653;SDS011;30790;52.030;7.110;2022-12-11T09:46:02;6.75;;;3.70;;
41653;SDS011;30790;52.030;7.110;2022-12-11T09:48:31;5.78;;;3.42;;
41653;SDS011;30790;52.030;7.110;2022-12-11T09:50:58;5.72;;;3.83;;
41653;SDS011;30790;52.030;7.110;2022-12-11T09:53:31;7.97;;;4.38;;
41653;SDS011;30790;52.030;7.110;2022-12-11T10:01:21;6.60;;;3.17;;
41653;SDS011;30790;52.030;7.110;2022-12-11T10:07:02;7.78;;;3.88;;
41653;SDS011;30790;52.030;7.110;2022-12-11T10:12:30;7.80;;;3.25;;
41653;SDS011;30790;52.030;7.110;2022-12-11T10:15:25;7.35;;;3.55;;
41653;SDS011;30790;52.030;7.110;2022-12-11T10:17:59;4.65;;;3.20;;
41653;SDS011;30790;52.030;7.110;2022-12-11T10:20:30;4.65;;;3.13;;
41653;SDS011;30790;52.030;7.110;2022-12-11T10:23:00;5.35;;;3.55;;
41653;SDS011;30790;52.030;7.110;2022-12-11T10:25:28;5.03;;;3.45;;
41653;SDS011;30790;52.030;7.110;2022-12-11T10:27:56;6.43;;;3.80;;
41653;SDS011;30790;52.030;7.110;2022-12-11T10:30:23;6.97;;;3.70;;
41653;SDS011;30790;52.030;7.110;2022-12-11T10:35:46;6.28;;;3.95;;
41653;SDS011;30790;52.030;7.110;2022-12-11T10:38:16;5.30;;;3.75;;
41653;SDS011;30790;52.030;7.110;2022-12-11T10:40:48;5.03;;;3.53;;
41653;SDS011;30790;52.030;7.110;2022-12-11T10:43:15;5.03;;;3.45;;
41653;SDS011;30790;52.030;7.110;2022-12-11T10:45:49;6.80;;;4.18;;
41653;SDS011;30790;52.030;7.110;2022-12-11T10:48:18;4.13;;;3.05;;
41653;SDS011;30790;52.030;7.110;2022-12-11T10:50:43;5.80;;;3.42;;
41653;SDS011;30790;52.030;7.110;2022-12-11T10:53:19;5.70;;;3.22;;
41653;SDS011;30790;52.030;7.110;2022-12-11T10:55:45;7.18;;;3.85;;
41653;SDS011;30790;52.030;7.110;2022-12-11T10:58:20;6.88;;;3.40;;
41653;SDS011;30790;52.030;7.110;2022-12-11T11:00:57;5.35;;;3.50;;
41653;SDS011;30790;52.030;7.110;2022-12-11T11:03:31;5.35;;;3.60;;
41653;SDS011;30790;52.030;7.110;2022-12-11T11:06:01;5.50;;;3.20;;
41653;SDS011;30790;52.030;7.110;2022-12-11T11:08:45;4.78;;;3.35;;
41653;SDS011;30790;52.030;7.110;2022-12-11T11:11:17;6.20;;;3.55;;
41653;SDS011;30790;52.030;7.110;2022-12-11T11:13:46;6.28;;;3.42;;
41653;SDS011;30790;52.030;7.110;2022-12-11T11:16:12;6.53;;;3.83;;
41653;SDS011;30790;52.030;7.110;2022-12-11T11:18:41;5.68;;;3.55;;
41653;SDS011;30790;52.030;7.110;2022-12-11T11:21:20;4.90;;;3.65;;
41653;SDS011;30790;52.030;7.110;2022-12-11T11:23:48;5.53;;;3.60;;
41653;SDS011;30790;52.030;7.110;2022-12-11T11:26:15;5.22;;;3.38;;
41653;SDS011;30790;52.030;7.110;2022-12-11T11:28:45;6.65;;;3.33;;
41653;SDS011;30790;52.030;7.110;2022-12-11T11:31:16;4.80;;;3.10;;
41653;SDS011;30790;52.030;7.110;2022-12-11T11:33:49;5.20;;;3.28;;
41653;SDS011;30790;52.030;7.110;2022-12-11T11:36:24;3.85;;;2.90;;
41653;SDS011;30790;52.030;7.110;2022-12-11T11:41:49;5.63;;;3.13;;
41653;SDS011;30790;52.030;7.110;2022-12-11T11:44:26;4.97;;;3.30;;
41653;SDS011;30790;52.030;7.110;2022-12-11T11:47:09;3.43;;;3.03;;
41653;SDS011;30790;52.030;7.110;2022-12-11T11:52:28;5.22;;;3.00;;
41653;SDS011;30790;52.030;7.110;2022-12-11T11:55:08;5.32;;;3.38;;
41653;SDS011;30790;52.030;7.110;2022-12-11T11:57:47;5.97;;;3.15;;
41653;SDS011;30790;52.030;7.110;2022-12-11T12:02:50;5.57;;;3.10;;
41653;SDS011;30790;52.030;7.110;2022-12-11T12:08:25;4.93;;;3.45;;
41653;SDS011;30790;52.030;7.110;2022-12-11T12:11:04;5.80;;;3.10;;
41653;SDS011;30790;52.030;7.110;2022-12-11T12:13:58;3.65;;;3.00;;
41653;SDS011;30790;52.030;7.110;2022-12-11T12:22:49;4.18;;;3.30;;
41653;SDS011;30790;52.030;7.110;2022-12-11T12:30:38;5.20;;;3.20;;
41653;SDS011;30790;52.030;7.110;2022-12-11T12:33:46;5.55;;;3.20;;
41653;SDS011;30790;52.030;7.110;2022-12-11T12:44:31;5.47;;;2.73;;
41653;SDS011;30790;52.030;7.110;2022-12-11T12:47:11;6.15;;;3.33;;
41653;SDS011;30790;52.030;7.110;2022-12-11T12:49:40;5.53;;;3.53;;
41653;SDS011;30790;52.030;7.110;2022-12-11T12:52:19;3.97;;;3.25;;
41653;SDS011;30790;52.030;7.110;2022-12-11T12:54:50;4.18;;;3.03;;
41653;SDS011;30790;52.030;7.110;2022-12-11T12:57:37;4.25;;;3.25;;
41653;SDS011;30790;52.030;7.110;2022-12-11T13:00:05;4.05;;;3.20;;
41653;SDS011;30790;52.030;7.110;2022-12-11T13:02:32;4.63;;;2.88;;
41653;SDS011;30790;52.030;7.110;2022-12-11T13:04:59;5.00;;;3.13;;
41653;SDS011;30790;52.030;7.110;2022-12-11T13:07:30;5.00;;;2.75;;
41653;SDS011;30790;52.030;7.110;2022-12-11T13:10:00;3.78;;;2.70;;
41653;SDS011;30790;52.030;7.110;2022-12-11T13:12:45;5.90;;;3.25;;
41653;SDS011;30790;52.030;7.110;2022-12-11T13:17:54;3.80;;;2.72;;
41653;SDS011;30790;52.030;7.110;2022-12-11T13:20:24;4.10;;;3.17;;
41653;SDS011;30790;52.030;7.110;2022-12-11T13:22:55;4.53;;;2.97;;
41653;SDS011;30790;52.030;7.110;2022-12-11T13:25:53;4.55;;;3.08;;
41653;SDS011;30790;52.030;7.110;2022-12-11T13:28:21;3.15;;;2.50;;
41653;SDS011;30790;52.030;7.110;2022-12-11T13:31:05;4.43;;;2.90;;
41653;SDS011;30790;52.030;7.110;2022-12-11T13:33:38;4.22;;;3.15;;
41653;SDS011;30790;52.030;7.110;2022-12-11T13:38:33;3.83;;;2.67;;
41653;SDS011;30790;52.030;7.110;2022-12-11T13:41:00;3.97;;;2.72;;
41653;SDS011;30790;52.030;7.110;2022-12-11T13:43:29;3.83;;;2.90;;
41653;SDS011;30790;52.030;7.110;2022-12-11T13:45:58;4.40;;;2.83;;
41653;SDS011;30790;52.030;7.110;2022-12-11T13:48:32;3.88;;;2.47;;
41653;SDS011;30790;52.030;7.110;2022-12-11T13:51:02;4.07;;;2.72;;
41653;SDS011;30790;52.030;7.110;2022-12-11T13:53:28;4.40;;;2.83;;
41653;SDS011;30790;52.030;7.110;2022-12-11T13:56:03;4.00;;;2.90;;
41653;SDS011;30790;52.030;7.110;2022-12-11T13:58:36;4.15;;;3.08;;
41653;SDS011;30790;52.030;7.110;2022-12-11T14:01:10;3.78;;;2.90;;
41653;SDS011;30790;52.030;7.110;2022-12-11T14:06:33;4.65;;;3.10;;
41653;SDS011;30790;52.030;7.110;2022-12-11T14:09:01;3.90;;;2.83;;
41653;SDS011;30790;52.030;7.110;2022-12-11T14:11:29;4.95;;;3.67;;
41653;SDS011;30790;52.030;7.110;2022-12-11T14:13:58;3.42;;;2.65;;
41653;SDS011;30790;52.030;7.110;2022-12-11T14:16:27;3.60;;;2.50;;
41653;SDS011;30790;52.030;7.110;2022-12-11T14:18:54;4.55;;;2.80;;
41653;SDS011;30790;52.030;7.110;2022-12-11T14:21:26;3.30;;;2.88;;
41653;SDS011;30790;52.030;7.110;2022-12-11T14:23:55;3.83;;;2.72;;
41653;SDS011;30790;52.030;7.110;2022-12-11T14:26:23;4.10;;;2.92;;
41653;SDS011;30790;52.030;7.110;2022-12-11T14:28:51;3.30;;;2.42;;
41653;SDS011;30790;52.030;7.110;2022-12-11T14:34:05;4.47;;;2.88;;
41653;SDS011;30790;52.030;7.110;2022-12-11T14:36:35;5.10;;;3.20;;
41653;SDS011;30790;52.030;7.110;2022-12-11T14:39:03;5.07;;;3.15;;
41653;SDS011;30790;52.030;7.110;2022-12-11T14:41:41;3.47;;;2.85;;
41653;SDS011;30790;52.030;7.110;2022-12-11T14:44:13;4.95;;;3.08;;
41653;SDS011;30790;52.030;7.110;2022-12-11T14:46:47;5.07;;;3.03;;
41653;SDS011;30790;52.030;7.110;2022-12-11T14:49:34;5.18;;;3.65;;
41653;SDS011;30790;52.030;7.110;2022-12-11T14:52:19;7.85;;;3.67;;
41653;SDS011;30790;52.030;7.110;2022-12-11T14:54:52;5.15;;;3.47;;
41653;SDS011;30790;52.030;7.110;2022-12-11T14:57:24;9.60;;;3.10;;
41653;SDS011;30790;52.030;7.110;2022-12-11T14:59:52;9.07;;;3.10;;
41653;SDS011;30790;52.030;7.110;2022-12-11T15:02:29;11.93;;;3.55;;
41653;SDS011;30790;52.030;7.110;2022-12-11T15:05:05;8.23;;;3.45;;
41653;SDS011;30790;52.030;7.110;2022-12-11T15:07:34;10.07;;;3.92;;
41653;SDS011;30790;52.030;7.110;2022-12-11T15:10:00;11.77;;;4.28;;
41653;SDS011;30790;52.030;7.110;2022-12-11T15:12:27;11.23;;;5.10;;
41653;SDS011;30790;52.030;7.110;2022-12-11T15:14:57;6.75;;;3.65;;
41653;SDS011;30790;52.030;7.110;2022-12-11T15:17:26;6.97;;;4.32;;
41653;SDS011;30790;52.030;7.110;2022-12-11T15:19:54;12.02;;;4.68;;
41653;SDS011;30790;52.030;7.110;2022-12-11T15:22:21;13.00;;;4.63;;
41653;SDS011;30790;52.030;7.110;2022-12-11T15:24:51;11.30;;;4.70;;
41653;SDS011;30790;52.030;7.110;2022-12-11T15:29:59;9.52;;;3.97;;
41653;SDS011;30790;52.030;7.110;2022-12-11T15:32:25;15.82;;;5.00;;
41653;SDS011;30790;52.030;7.110;2022-12-11T15:34:54;8.60;;;4.07;;
41653;SDS011;30790;52.030;7.110;2022-12-11T15:39:53;11.07;;;4.50;;
41653;SDS011;30790;52.030;7.110;2022-12-11T15:42:28;8.93;;;4.43;;
41653;SDS011;30790;52.030;7.110;2022-12-11T15:44:55;10.35;;;4.93;;
41653;SDS011;30790;52.030;7.110;2022-12-11T15:47:22;16.55;;;6.30;;
41653;SDS011;30790;52.030;7.110;2022-12-11T15:49:52;24.02;;;7.38;;
41653;SDS011;30790;52.030;7.110;2022-12-11T15:52:19;22.58;;;7.47;;
41653;SDS011;30790;52.030;7.110;2022-12-11T15:54:45;22.95;;;8.07;;
41653;SDS011;30790;52.030;7.110;2022-12-11T15:57:11;27.23;;;8.35;;
41653;SDS011;30790;52.030;7.110;2022-12-11T15:59:40;27.05;;;8.27;;
41653;SDS011;30790;52.030;7.110;2022-12-11T16:02:12;34.55;;;8.55;;
41653;SDS011;30790;52.030;7.110;2022-12-11T16:04:38;27.80;;;9.38;;
41653;SDS011;30790;52.030;7.110;2022-12-11T16:07:04;32.05;;;9.35;;
41653;SDS011;30790;52.030;7.110;2022-12-11T16:09:30;30.77;;;9.20;;
41653;SDS011;30790;52.030;7.110;2022-12-11T16:11:58;29.45;;;9.77;;
41653;SDS011;30790;52.030;7.110;2022-12-11T16:14:23;31.23;;;10.05;;